Reading, United Kingdom
Current Conditions -  °F | °C
As of 7:50 AM on Thursday 27 Nov 2014 (Local Time) from EGUB Reporting Station
Drizzle Drizzle  
Wind Chill: 45°   Ceiling: 200
Heat Index: 45°   Visibility: 0.31mi
Dew Point: 45°   Wind: 1mph
Humidity: 100%   Direction: 310°NW
Pressure: 29.62"   Gusts: NA
Location:  51.45°N, 0.99°W
Report Text: EGUB 270750Z 31001KT 0500 -DZ OVC002 07/07 Q1003 RED BECMG 1600 BR OVC003 YLO2
Loading
Personal Weather Stations






























Interactive Weather Map New forecast layout! Learn more

10-Day Weather Forecast

Advertisements
Track Severe Weather on mobile